Time;durP1;ratioP1;P1;durP2;ratioP2;P2;SDS_P1;SDS_P2;PMS_P1;PMS_P2;Temp;Humidity;BMP_temperature;BMP_pressure;BME280_temperature;BME280_humidity;BME280_pressure;Samples;Min_cycle;Max_cycle;Signal;HPM_P1;HPM_P2
2022/10/05 00:02:15;;;;;;;7.70;5.63;;;;;;;15.65;100.00;98144.22;5062150;28;20120;-91
2022/10/05 00:04:41;;;;;;;10.02;5.38;;;;;;;15.59;100.00;98132.00;5047709;28;20037;-88
2022/10/05 00:07:16;;;;;;;8.30;5.65;;;;;;;15.77;100.00;98136.94;5064721;28;20033;-84
2022/10/05 00:09:44;;;;;;;10.18;5.85;;;;;;;15.84;100.00;98126.94;5063328;28;20037;-86
2022/10/05 00:12:18;;;;;;;12.25;5.75;;;;;;;15.81;100.00;98127.44;5065574;28;20052;-87
2022/10/05 00:14:45;;;;;;;10.13;5.45;;;;;;;15.62;100.00;98108.47;5066755;28;20473;-87
2022/10/05 00:17:21;;;;;;;11.63;5.72;;;;;;;15.51;100.00;98106.81;5064910;28;20037;-85
2022/10/05 00:19:52;;;;;;;10.63;5.90;;;;;;;15.69;100.00;98111.72;5063888;28;20049;-85
2022/10/05 00:22:21;;;;;;;9.57;6.22;;;;;;;15.54;100.00;98101.00;5057526;28;20025;-85
2022/10/05 00:24:50;;;;;;;10.65;5.93;;;;;;;15.78;100.00;98087.44;5059866;28;20036;-86
2022/10/05 00:27:20;;;;;;;10.23;5.57;;;;;;;15.79;100.00;98100.44;5060998;28;20032;-85
2022/10/05 00:29:47;;;;;;;10.95;5.47;;;;;;;15.71;100.00;98090.31;5062975;28;20078;-87
2022/10/05 00:32:13;;;;;;;12.23;5.30;;;;;;;15.69;100.00;98073.88;5060915;28;20033;-85
2022/10/05 00:34:39;;;;;;;8.75;5.40;;;;;;;15.64;100.00;98092.38;5060140;28;20367;-85
2022/10/05 00:37:05;;;;;;;13.07;5.75;;;;;;;15.71;100.00;98087.66;5062612;28;20490;-85
2022/10/05 00:39:33;;;;;;;9.73;4.97;;;;;;;15.69;100.00;98087.94;5058112;28;20048;-85
2022/10/05 00:42:25;;;;;;;8.35;5.28;;;;;;;15.62;100.00;98058.22;5059779;28;20505;-85
2022/10/05 00:44:56;;;;;;;13.00;5.10;;;;;;;15.77;100.00;98069.97;5062706;28;20035;-85
2022/10/05 00:47:40;;;;;;;14.32;5.05;;;;;;;15.85;100.00;98067.66;5059330;28;20045;-85
2022/10/05 00:50:37;;;;;;;7.88;4.15;;;;;;;15.70;100.00;98064.91;5060718;28;20112;-86
2022/10/05 00:53:21;;;;;;;13.43;4.57;;;;;;;15.65;100.00;98067.50;5061546;28;20460;-86
2022/10/05 00:55:54;;;;;;;13.57;4.43;;;;;;;15.81;100.00;98069.22;5061270;28;20040;-87
2022/10/05 00:58:29;;;;;;;10.55;4.72;;;;;;;15.88;100.00;98066.38;5062337;28;20140;-84
2022/10/05 01:01:12;;;;;;;9.80;4.43;;;;;;;15.84;100.00;98062.66;5058183;28;20127;-86
2022/10/05 01:04:27;;;;;;;8.23;4.13;;;;;;;15.82;100.00;98057.59;5063898;28;20063;-85
2022/10/05 01:06:59;;;;;;;8.80;4.45;;;;;;;15.92;100.00;98056.13;5036261;28;20055;-85
2022/10/05 01:09:44;;;;;;;7.05;4.10;;;;;;;15.82;100.00;98044.38;5059719;28;20040;-84
2022/10/05 01:12:47;;;;;;;11.27;4.78;;;;;;;15.81;100.00;98055.19;5060737;28;20032;-85
2022/10/05 01:15:30;;;;;;;17.85;4.20;;;;;;;15.95;100.00;98045.03;5057871;28;20025;-86
2022/10/05 01:18:01;;;;;;;8.50;4.00;;;;;;;15.81;100.00;98044.59;5057993;28;20063;-86
2022/10/05 01:20:32;;;;;;;7.55;5.03;;;;;;;15.82;100.00;98041.72;5058787;28;20033;-87
2022/10/05 01:23:32;;;;;;;8.25;4.00;;;;;;;15.85;100.00;98009.47;5060667;28;20048;-86
2022/10/05 01:26:23;;;;;;;7.13;4.25;;;;;;;15.90;100.00;98029.09;5060548;28;20024;-87
2022/10/05 01:28:59;;;;;;;7.40;4.18;;;;;;;15.91;100.00;98006.88;5061215;28;20101;-87
2022/10/05 01:31:38;;;;;;;8.35;4.13;;;;;;;15.85;100.00;98025.34;5061363;28;20123;-88
2022/10/05 01:34:41;;;;;;;10.70;4.20;;;;;;;15.78;100.00;97987.72;5057773;28;20405;-86
2022/10/05 01:37:34;;;;;;;6.57;3.95;;;;;;;16.08;100.00;98015.44;5059832;28;20033;-86
2022/10/05 01:40:00;;;;;;;;;;;;;;;15.95;100.00;98007.97;5059996;28;20025;-85
2022/10/05 01:42:28;;;;;;;6.55;3.42;;;;;;;15.97;100.00;98005.88;5057663;28;20000;-87
2022/10/05 01:45:15;;;;;;;8.88;4.25;;;;;;;15.95;100.00;98005.34;5062748;28;20077;-86
2022/10/05 01:47:43;;;;;;;12.30;4.25;;;;;;;15.89;100.00;97990.44;5040590;28;20067;-87
2022/10/05 01:50:25;;;;;;;6.75;4.15;;;;;;;15.93;100.00;97983.63;5063113;28;20029;-86
2022/10/05 01:52:58;;;;;;;6.60;3.97;;;;;;;15.97;100.00;97982.84;5060939;28;20040;-87
2022/10/05 01:55:31;;;;;;;7.68;3.80;;;;;;;15.97;100.00;97974.13;5056421;28;20025;-86
2022/10/05 01:58:07;;;;;;;7.57;4.05;;;;;;;15.82;100.00;97967.63;5055951;28;20418;-87
2022/10/05 02:00:47;;;;;;;10.52;4.18;;;;;;;15.98;100.00;97986.28;5059474;28;20024;-88
2022/10/05 02:03:16;;;;;;;15.13;4.15;;;;;;;16.12;100.00;97979.50;5062504;28;20078;-86
2022/10/05 02:06:00;;;;;;;9.77;3.67;;;;;;;16.05;100.00;97965.66;5042773;28;20028;-86
2022/10/05 02:08:31;;;;;;;5.32;3.55;;;;;;;15.95;100.00;97955.06;5056350;28;20039;-88
2022/10/05 02:11:02;;;;;;;8.60;4.03;;;;;;;15.89;100.00;97961.34;5065811;28;20382;-87
2022/10/05 02:13:39;;;;;;;9.50;3.80;;;;;;;15.89;100.00;97969.28;5066315;28;20436;-87
2022/10/05 02:16:32;;;;;;;9.23;4.03;;;;;;;15.82;100.00;97970.28;5060961;28;20123;-85
2022/10/05 02:19:13;;;;;;;9.20;4.00;;;;;;;16.10;100.00;97972.84;5053918;28;20068;-86
2022/10/05 02:21:41;;;;;;;10.13;3.80;;;;;;;16.01;100.00;97954.00;5062947;28;20198;-86
2022/10/05 02:24:14;;;;;;;8.73;4.93;;;;;;;15.85;100.00;97945.94;5064371;28;20466;-87
2022/10/05 02:26:40;;;;;;;;;;;;;;;16.21;100.00;97968.41;5058862;28;20037;-86
2022/10/05 02:29:10;;;;;;;9.05;4.07;;;;;;;16.02;100.00;97939.72;5064977;28;19970;-85
2022/10/05 02:31:46;;;;;;;6.28;3.72;;;;;;;16.13;100.00;97951.16;5061944;28;20111;-87
2022/10/05 02:34:27;;;;;;;10.02;3.60;;;;;;;16.01;100.00;97943.44;5061973;28;20025;-86
2022/10/05 02:37:06;;;;;;;8.18;3.85;;;;;;;16.01;100.00;97956.66;5058725;28;20036;-86
2022/10/05 02:39:46;;;;;;;6.47;3.40;;;;;;;16.15;100.00;97948.25;5061083;28;20048;-86
2022/10/05 02:42:18;;;;;;;9.23;3.65;;;;;;;16.17;100.00;97954.09;5056867;28;20036;-86
2022/10/05 02:45:00;;;;;;;5.30;3.40;;;;;;;15.99;100.00;97964.06;5063363;28;20025;-87
2022/10/05 02:47:41;;;;;;;9.32;4.03;;;;;;;16.07;100.00;97968.06;5063788;28;20394;-86
2022/10/05 02:50:26;;;;;;;4.55;3.42;;;;;;;16.26;100.00;97965.78;5055601;28;20033;-85
2022/10/05 02:53:19;;;;;;;8.98;3.28;;;;;;;16.26;100.00;97956.00;5060248;28;20086;-87
2022/10/05 02:56:10;;;;;;;10.48;3.60;;;;;;;16.15;100.00;97943.75;5062123;28;20029;-85
2022/10/05 02:58:49;;;;;;;8.82;3.92;;;;;;;16.12;100.00;97939.78;5057333;28;20420;-86
2022/10/05 03:01:18;;;;;;;8.50;4.15;;;;;;;16.06;100.00;97938.16;5057016;28;20029;-85
2022/10/05 03:03:51;;;;;;;8.82;3.78;;;;;;;16.04;100.00;97932.31;5068198;28;20036;-86
2022/10/05 03:06:31;;;;;;;8.02;4.28;;;;;;;16.05;100.00;97917.25;5066959;28;20029;-85
2022/10/05 03:09:04;;;;;;;11.25;3.65;;;;;;;16.01;100.00;97926.72;5059927;28;20032;-85
2022/10/05 03:11:56;;;;;;;6.97;3.45;;;;;;;15.93;100.00;97901.59;5060618;28;20433;-86
2022/10/05 03:14:39;;;;;;;6.32;3.75;;;;;;;16.01;100.00;97903.72;5060526;28;20029;-85
2022/10/05 03:17:21;;;;;;;6.10;3.17;;;;;;;16.12;100.00;97900.06;5062670;28;20052;-87
2022/10/05 03:20:20;;;;;;;9.10;4.45;;;;;;;16.13;100.00;97892.91;5043143;28;20033;-84
2022/10/05 03:22:57;;;;;;;5.68;2.88;;;;;;;16.10;100.00;97882.84;5062917;28;20032;-85
2022/10/05 03:25:49;;;;;;;5.50;3.00;;;;;;;16.19;100.00;97904.31;5042637;28;20045;-85
2022/10/05 03:28:31;;;;;;;7.68;3.47;;;;;;;16.07;100.00;97878.09;5059600;28;20132;-86
2022/10/05 03:31:19;;;;;;;8.82;3.50;;;;;;;16.07;100.00;97884.16;5062764;28;20116;-87
2022/10/05 03:34:10;;;;;;;8.05;3.80;;;;;;;16.16;100.00;97892.41;5064390;28;20036;-87
2022/10/05 03:36:48;;;;;;;6.30;3.50;;;;;;;16.16;100.00;97875.72;5063493;28;20548;-87
2022/10/05 03:39:21;;;;;;;5.72;3.20;;;;;;;16.02;100.00;97868.25;5063006;28;20042;-86
2022/10/05 03:42:03;;;;;;;8.38;3.05;;;;;;;16.19;100.00;97864.63;5063131;28;20037;-86
2022/10/05 03:44:47;;;;;;;5.80;3.20;;;;;;;16.12;100.00;97865.66;5058895;28;20029;-87
2022/10/05 03:48:06;;;;;;;4.55;3.20;;;;;;;16.22;100.00;97864.09;5061955;28;20024;-87
2022/10/05 03:51:16;;;;;;;4.25;2.90;;;;;;;16.27;100.00;97849.03;5011697;28;20399;-88
2022/10/05 03:53:55;;;;;;;6.43;3.20;;;;;;;16.04;100.00;97858.22;5043707;28;20036;-86
2022/10/05 03:56:57;;;;;;;7.30;3.63;;;;;;;15.95;100.00;97854.47;5063286;28;20048;-86
2022/10/05 03:59:31;;;;;;;5.45;3.35;;;;;;;16.09;100.00;97830.97;5063846;28;20478;-86
2022/10/05 04:02:00;;;;;;;8.40;3.70;;;;;;;16.16;100.00;97843.97;5058573;28;20024;-88
2022/10/05 04:04:52;;;;;;;6.85;3.33;;;;;;;16.12;100.00;97836.56;5062123;28;20120;-85
2022/10/05 04:07:45;;;;;;;4.15;3.55;;;;;;;16.05;100.00;97828.03;5062502;28;20039;-86
2022/10/05 04:10:55;;;;;;;10.05;3.80;;;;;;;15.98;100.00;97822.19;5058704;28;20108;-88
2022/10/05 04:13:46;;;;;;;5.68;3.55;;;;;;;15.93;100.00;97816.91;5052986;28;20124;-86
2022/10/05 04:16:17;;;;;;;5.45;3.95;;;;;;;15.82;100.00;97800.94;5056911;28;20387;-86
2022/10/05 04:18:49;;;;;;;11.65;4.65;;;;;;;15.84;100.00;97806.00;5061559;28;20028;-87
2022/10/05 04:21:26;;;;;;;5.38;3.75;;;;;;;15.63;100.00;97783.94;5059195;28;20029;-86
2022/10/05 04:23:58;;;;;;;6.20;3.70;;;;;;;15.84;100.00;97800.69;5061105;28;20047;-86
2022/10/05 04:26:34;;;;;;;6.68;3.20;;;;;;;15.74;100.00;97780.28;5062796;28;20031;-88
2022/10/05 04:29:20;;;;;;;5.10;3.58;;;;;;;15.74;100.00;97780.28;5063803;28;20029;-88
2022/10/05 04:32:07;;;;;;;7.30;3.95;;;;;;;15.68;100.00;97791.88;5059417;28;20041;-89
2022/10/05 04:35:12;;;;;;;12.38;4.18;;;;;;;15.73;100.00;97781.34;5058254;28;20463;-88
2022/10/05 04:38:09;;;;;;;8.13;4.32;;;;;;;15.82;100.00;97771.03;5052520;28;20155;-88
2022/10/05 04:40:47;;;;;;;5.80;4.13;;;;;;;15.77;100.00;97785.06;5060236;28;20051;-86
2022/10/05 04:43:16;;;;;;;7.15;4.10;;;;;;;15.62;100.00;97769.13;5062674;28;20043;-87
2022/10/05 04:45:53;;;;;;;6.22;4.18;;;;;;;15.69;100.00;97769.66;5060084;28;20056;-86
2022/10/05 04:48:19;;;;;;;5.47;4.60;;;;;;;15.80;100.00;97757.28;5061794;28;20025;-86
2022/10/05 04:51:02;;;;;;;5.70;4.47;;;;;;;15.74;100.00;97758.31;5060326;28;20464;-87
2022/10/05 04:54:13;;;;;;;6.82;5.32;;;;;;;15.79;100.00;97755.69;5062363;28;20368;-86
2022/10/05 04:56:48;;;;;;;13.55;5.82;;;;;;;15.61;100.00;97749.81;5065934;28;20035;-86
2022/10/05 04:59:35;;;;;;;8.35;5.55;;;;;;;15.72;100.00;97755.94;5061802;28;20041;-87
2022/10/05 05:02:02;;;;;;;6.78;4.78;;;;;;;15.78;100.00;97756.75;5062278;28;20020;-87
2022/10/05 05:04:52;;;;;;;9.98;5.85;;;;;;;15.73;100.00;97735.56;5061186;28;20394;-88
2022/10/05 05:07:33;;;;;;;9.52;5.07;;;;;;;15.74;100.00;97745.91;5062965;28;20059;-89
2022/10/05 05:10:19;;;;;;;12.05;5.45;;;;;;;15.72;100.00;97724.19;5063255;28;20034;-87
2022/10/05 05:12:54;;;;;;;10.00;5.50;;;;;;;15.82;100.00;97712.81;5057202;28;20048;-87
2022/10/05 05:15:39;;;;;;;9.30;5.22;;;;;;;15.68;100.00;97709.88;5042173;28;20367;-88
2022/10/05 05:18:33;;;;;;;8.93;5.65;;;;;;;15.75;100.00;97702.53;5061770;28;20025;-87
2022/10/05 05:21:14;;;;;;;6.18;4.65;;;;;;;15.75;100.00;97694.59;5061693;28;20078;-89
2022/10/05 05:23:49;;;;;;;9.48;4.43;;;;;;;15.75;100.00;97702.53;5065597;28;20026;-88
2022/10/05 05:26:28;;;;;;;5.47;4.50;;;;;;;15.57;100.00;97694.00;5057969;28;20072;-89
2022/10/05 05:29:31;;;;;;;7.32;4.55;;;;;;;15.78;100.00;97696.69;5063225;28;20028;-89
2022/10/05 05:32:06;;;;;;;7.45;4.40;;;;;;;15.71;100.00;97669.69;5061950;28;20036;-88
2022/10/05 05:35:05;;;;;;;5.75;4.38;;;;;;;15.56;100.00;97684.50;5062536;28;20056;-88
2022/10/05 05:37:38;;;;;;;8.00;5.03;;;;;;;15.67;100.00;97673.91;5062175;28;20482;-90
2022/10/05 05:40:16;;;;;;;5.80;4.70;;;;;;;15.65;100.00;97665.44;5054022;28;20065;-88
2022/10/05 05:42:54;;;;;;;5.80;4.18;;;;;;;15.65;100.00;97671.56;5064003;28;20029;-86
2022/10/05 05:45:30;;;;;;;6.57;4.53;;;;;;;15.60;100.00;97668.09;5059236;28;20082;-89
2022/10/05 05:47:59;;;;;;;5.32;4.20;;;;;;;15.66;100.00;97677.63;5058480;28;20121;-87
2022/10/05 05:50:42;;;;;;;9.65;4.53;;;;;;;15.68;100.00;97672.84;5059614;28;21760;-88
2022/10/05 05:53:22;;;;;;;7.30;3.95;;;;;;;15.60;100.00;97663.59;5062581;28;20040;-88
2022/10/05 05:55:53;;;;;;;10.25;3.90;;;;;;;15.75;100.00;97651.44;5056063;28;20033;-87
2022/10/05 05:58:27;;;;;;;9.88;4.30;;;;;;;15.54;100.00;97652.22;5043061;28;20541;-89
2022/10/05 06:01:03;;;;;;;4.45;3.50;;;;;;;15.60;100.00;97642.44;5064984;28;20048;-87
2022/10/05 06:03:53;;;;;;;6.70;3.40;;;;;;;15.76;100.00;97656.50;5063089;28;20104;-89
2022/10/05 06:06:24;;;;;;;6.20;3.35;;;;;;;15.83;100.00;97654.38;5026019;28;20044;-87
2022/10/05 06:08:55;;;;;;;5.75;3.60;;;;;;;15.70;100.00;97647.75;5059241;28;20040;-86
2022/10/05 06:11:25;;;;;;;7.70;4.40;;;;;;;15.76;100.00;97632.69;5057355;28;20506;-86
2022/10/05 06:13:53;;;;;;;7.32;3.90;;;;;;;15.81;100.00;97648.56;5056529;28;20024;-86
2022/10/05 06:16:58;;;;;;;10.07;4.00;;;;;;;15.85;100.00;97649.59;5061108;28;20060;-86
2022/10/05 06:19:26;;;;;;;7.05;4.03;;;;;;;15.89;100.00;97643.81;5060223;28;20037;-86
2022/10/05 06:21:57;;;;;;;12.48;4.45;;;;;;;15.85;100.00;97657.53;5060224;28;20049;-88
2022/10/05 06:24:37;;;;;;;8.48;4.32;;;;;;;15.88;100.00;97636.91;5062242;28;20036;-86
2022/10/05 06:27:02;;;;;;;6.78;4.47;;;;;;;15.83;100.00;97643.00;5039214;28;20040;-87
2022/10/05 06:29:43;;;;;;;10.20;5.00;;;;;;;15.92;100.00;97640.66;5058326;28;20120;-86
2022/10/05 06:32:25;;;;;;;7.75;4.72;;;;;;;15.96;100.00;97639.06;5063392;28;20391;-87
2022/10/05 06:35:05;;;;;;;12.07;4.68;;;;;;;15.94;100.00;97651.78;5059700;28;20020;-87
2022/10/05 06:37:52;;;;;;;5.72;3.90;;;;;;;16.12;100.00;97645.97;5060784;28;20091;-86
2022/10/05 06:40:41;;;;;;;8.05;4.57;;;;;;;15.99;100.00;97635.91;5059879;28;20033;-89
2022/10/05 06:43:27;;;;;;;6.72;4.10;;;;;;;16.12;100.00;97627.44;5057625;28;20037;-88
2022/10/05 06:46:18;;;;;;;5.78;4.43;;;;;;;15.99;100.00;97627.97;5062063;28;20025;-88
2022/10/05 06:49:10;;;;;;;7.70;4.47;;;;;;;16.09;100.00;97630.59;5047942;28;20117;-88
2022/10/05 06:51:51;;;;;;;5.80;4.32;;;;;;;16.15;100.00;97620.03;5038590;28;20040;-86
2022/10/05 06:55:00;;;;;;;5.20;3.90;;;;;;;16.31;100.00;97612.84;5061609;28;20529;-88
2022/10/05 06:57:47;;;;;;;5.43;4.15;;;;;;;16.24;100.00;97623.69;5046818;28;20032;-86
2022/10/05 07:00:18;;;;;;;8.65;4.13;;;;;;;16.01;100.00;97609.97;5063212;28;20020;-84
2022/10/05 07:02:48;;;;;;;6.10;3.58;;;;;;;16.29;100.00;97610.44;5055514;28;20033;-85
2022/10/05 07:05:46;;;;;;;6.45;3.70;;;;;;;16.41;100.00;97629.50;5062792;28;20025;-87
2022/10/05 07:08:12;;;;;;;6.90;3.72;;;;;;;16.35;100.00;97612.06;5064120;28;20067;-86
2022/10/05 07:10:58;;;;;;;8.02;3.70;;;;;;;16.22;100.00;97620.53;5063747;28;20067;-85
2022/10/05 07:13:46;;;;;;;7.43;3.53;;;;;;;16.37;100.00;97623.16;5055903;28;20445;-86
2022/10/05 07:16:14;;;;;;;5.43;2.92;;;;;;;16.29;100.00;97631.63;5066217;28;20438;-85
2022/10/05 07:19:31;;;;;;;7.45;3.40;;;;;;;16.42;100.00;97620.50;5067943;28;20033;-86
2022/10/05 07:22:31;;;;;;;7.18;3.03;;;;;;;16.59;100.00;97624.72;5005550;28;20033;-84
2022/10/05 07:25:16;;;;;;;4.45;2.50;;;;;;;16.54;100.00;97611.50;5015329;28;20526;-84
2022/10/05 07:27:59;;;;;;;3.92;2.38;;;;;;;16.51;100.00;97612.81;5038501;28;20494;-85
2022/10/05 07:30:25;;;;;;;4.18;2.70;;;;;;;16.56;100.00;97610.13;5064798;28;20372;-84
2022/10/05 07:33:14;;;;;;;3.28;2.10;;;;;;;16.49;100.00;97622.06;5069265;28;20028;-90
2022/10/05 07:39:14;;;;;;;3.75;1.90;;;;;;;16.41;100.00;97623.44;5063794;28;20056;-87
2022/10/05 07:41:44;;;;;;;7.80;2.53;;;;;;;16.56;100.00;97627.91;5064917;28;20437;-88
2022/10/05 07:44:26;;;;;;;3.10;2.03;;;;;;;16.55;100.00;97621.78;5060794;28;20098;-86
2022/10/05 07:46:57;;;;;;;3.67;2.03;;;;;;;16.63;100.00;97631.06;5062869;28;20032;-89
2022/10/05 07:49:44;;;;;;;6.57;1.95;;;;;;;16.42;100.00;97636.38;5063965;28;20028;-88
2022/10/05 07:52:19;;;;;;;6.18;2.00;;;;;;;16.26;100.00;97648.06;5051528;28;20056;-87
2022/10/05 07:54:52;;;;;;;4.63;1.55;;;;;;;16.16;100.00;97663.97;5061667;28;20044;-90
2022/10/05 07:57:33;;;;;;;4.10;1.63;;;;;;;16.35;100.00;97657.06;5059192;28;20517;-86
2022/10/05 08:00:04;;;;;;;4.32;1.00;;;;;;;16.16;100.00;97642.78;5066270;28;20028;-87
2022/10/05 08:02:40;;;;;;;1.35;0.70;;;;;;;16.12;100.00;97632.72;5059399;28;20028;-86
2022/10/05 08:05:14;;;;;;;1.40;0.70;;;;;;;16.06;100.00;97646.22;5059384;28;20044;-88
2022/10/05 08:07:40;;;;;;;1.10;0.80;;;;;;;16.28;100.00;97635.34;5062745;28;20065;-85
2022/10/05 08:10:42;;;;;;;0.85;0.77;;;;;;;16.30;100.00;97630.56;5055741;28;20075;-87
2022/10/05 08:13:22;;;;;;;0.77;0.70;;;;;;;16.23;100.00;97630.06;5062282;28;20363;-88
2022/10/05 08:15:56;;;;;;;2.47;0.70;;;;;;;16.40;100.00;97649.09;5060903;28;20041;-88
2022/10/05 08:18:53;;;;;;;0.50;0.50;;;;;;;16.01;100.00;97641.72;5059255;28;20033;-85
2022/10/05 08:21:38;;;;;;;0.40;0.40;;;;;;;16.09;100.00;97620.00;5064068;28;20478;-85
2022/10/05 08:24:09;;;;;;;;;;;;;;;15.91;100.00;97628.47;5056603;28;20036;-86
2022/10/05 08:27:01;;;;;;;0.40;0.40;;;;;;;16.31;100.00;97640.13;5066443;28;19990;-87
2022/10/05 08:29:44;;;;;;;0.55;0.40;;;;;;;16.64;100.00;97653.84;5062710;28;20033;-88
2022/10/05 08:32:40;;;;;;;0.60;0.60;;;;;;;16.81;100.00;97648.25;5065478;28;20061;-88
2022/10/05 08:35:35;;;;;;;0.47;0.47;;;;;;;16.91;100.00;97658.03;5050637;28;20028;-87
2022/10/05 08:38:08;;;;;;;0.68;0.68;;;;;;;16.67;100.00;97636.63;5065479;28;20041;-88
2022/10/05 08:40:33;;;;;;;;;;;;;;;16.72;100.00;97649.06;5046587;28;20033;-88
2022/10/05 08:43:18;;;;;;;0.77;0.40;;;;;;;16.60;100.00;97644.84;5069042;28;20019;-85
2022/10/05 08:46:01;;;;;;;0.40;0.40;;;;;;;16.84;100.00;97631.78;5061174;28;20112;-87
2022/10/05 08:48:50;;;;;;;0.60;0.47;;;;;;;16.84;100.00;97646.91;5056434;28;20025;-87
2022/10/05 08:51:40;;;;;;;0.52;0.43;;;;;;;16.29;100.00;97676.63;5062337;28;20386;-87
2022/10/05 08:54:27;;;;;;;1.70;1.60;;;;;;;15.87;100.00;97701.47;5038615;28;20094;-87
2022/10/05 08:57:02;;;;;;;1.00;0.90;;;;;;;15.63;100.00;97702.75;5067576;28;20115;-85
2022/10/05 08:59:56;;;;;;;0.50;0.50;;;;;;;15.73;100.00;97712.56;5066707;28;20039;-86
2022/10/05 09:02:43;;;;;;;0.73;0.73;;;;;;;15.28;100.00;97728.78;5056593;28;20107;-85
2022/10/05 09:05:55;;;;;;;0.52;0.50;;;;;;;14.96;100.00;97719.13;5066521;28;20115;-85
2022/10/05 09:08:49;;;;;;;0.40;0.40;;;;;;;14.91;100.00;97727.00;5048051;28;20110;-87
2022/10/05 09:11:38;;;;;;;0.40;0.40;;;;;;;14.28;100.00;97719.66;5033432;28;20041;-87
2022/10/05 09:14:22;;;;;;;0.65;0.40;;;;;;;14.14;100.00;97721.94;5050802;28;20438;-87
2022/10/05 09:17:11;;;;;;;0.30;0.30;;;;;;;13.91;100.00;97720.38;5073340;28;20498;-89
2022/10/05 09:19:58;;;;;;;0.40;0.40;;;;;;;13.76;100.00;97736.84;5058734;28;20486;-86
2022/10/05 09:23:01;;;;;;;0.40;0.40;;;;;;;13.90;100.00;97731.97;5055941;28;20537;-88
2022/10/05 09:25:42;;;;;;;0.32;0.32;;;;;;;14.10;100.00;97734.03;5061126;28;20094;-87
2022/10/05 09:28:28;;;;;;;0.40;0.40;;;;;;;14.26;100.00;97730.50;5054323;28;20037;-88
2022/10/05 09:31:06;;;;;;;1.35;0.45;;;;;;;14.42;100.00;97720.84;5055478;28;20074;-87
2022/10/05 09:33:40;;;;;;;0.50;0.50;;;;;;;14.58;100.00;97747.38;5065030;28;20459;-88
2022/10/05 09:36:52;;;;;;;0.40;0.40;;;;;;;14.67;100.00;97743.19;5061289;28;20103;-88
2022/10/05 09:39:27;;;;;;;0.77;0.57;;;;;;;14.37;100.00;97749.84;5061164;28;20498;-87
2022/10/05 09:41:58;;;;;;;0.30;0.30;;;;;;;14.35;100.00;97748.50;5062275;28;20029;-87
2022/10/05 09:45:02;;;;;;;0.55;0.50;;;;;;;14.28;100.00;97751.34;5056492;28;20033;-88
2022/10/05 09:47:33;;;;;;;0.40;0.40;;;;;;;14.52;100.00;97758.94;5063084;28;20484;-88
2022/10/05 09:50:03;;;;;;;0.65;0.47;;;;;;;14.60;100.00;97762.94;5064739;28;20029;-88
2022/10/05 09:53:26;;;;;;;0.40;0.40;;;;;;;14.34;100.00;97760.09;5048880;28;20028;-87
2022/10/05 09:56:45;;;;;;;0.95;0.60;;;;;;;14.27;100.00;97752.38;5028107;28;20045;-87
2022/10/05 09:59:50;;;;;;;0.57;0.57;;;;;;;14.24;100.00;97772.16;4973101;28;20038;-88
2022/10/05 10:02:45;;;;;;;3.40;0.60;;;;;;;14.25;100.00;97783.50;4979824;28;20515;-87
2022/10/05 10:05:38;;;;;;;0.63;0.60;;;;;;;14.17;100.00;97776.06;5067511;28;20048;-87
2022/10/05 10:08:19;;;;;;;0.50;0.50;;;;;;;14.28;100.00;97801.47;5016462;28;20045;-89
2022/10/05 10:10:53;;;;;;;0.80;0.60;;;;;;;14.46;100.00;97795.06;5047470;28;20471;-87
2022/10/05 10:13:55;;;;;;;6.43;0.80;;;;;;;13.90;100.00;97811.09;5041368;28;20049;-88
2022/10/05 10:16:35;;;;;;;0.98;0.65;;;;;;;13.63;100.00;97825.03;5068157;28;20036;-89
2022/10/05 10:19:26;;;;;;;1.63;0.60;;;;;;;13.31;100.00;97833.53;5069616;28;20078;-89
2022/10/05 10:22:23;;;;;;;1.85;0.70;;;;;;;13.43;100.00;97856.13;5056537;28;20032;-88
2022/10/05 10:24:58;;;;;;;0.60;0.60;;;;;;;13.16;100.00;97869.16;5065838;28;20090;-87
2022/10/05 10:27:59;;;;;;;0.60;0.57;;;;;;;13.62;100.00;97865.63;5053514;28;20039;-88
2022/10/05 10:30:45;;;;;;;0.60;0.60;;;;;;;13.50;100.00;97842.78;5054436;28;20059;-88
2022/10/05 10:33:31;;;;;;;0.63;0.63;;;;;;;13.88;100.00;97837.75;5038483;28;20043;-91
2022/10/05 10:36:04;;;;;;;0.50;0.50;;;;;;;13.25;100.00;97817.66;5058501;28;20051;-90
2022/10/05 10:38:52;;;;;;;0.57;0.57;;;;;;;13.46;100.00;97846.16;5038482;28;20499;-89
2022/10/05 10:41:45;;;;;;;0.55;0.55;;;;;;;13.52;100.00;97851.25;5038797;28;20053;-88
2022/10/05 10:44:46;;;;;;;1.05;0.75;;;;;;;13.77;100.00;97849.19;5039361;28;20044;-89
2022/10/05 10:47:21;;;;;;;1.83;0.70;;;;;;;13.85;100.00;97856.69;5037235;28;20050;-88
2022/10/05 10:50:22;;;;;;;0.50;0.50;;;;;;;13.71;100.00;97848.34;5037458;28;20071;-91
2022/10/05 10:53:27;;;;;;;0.82;0.80;;;;;;;13.72;100.00;97886.84;5057877;28;20479;-90
2022/10/05 10:56:05;;;;;;;0.95;0.70;;;;;;;13.68;100.00;97891.84;5056653;28;20035;-90
2022/10/05 10:59:08;;;;;;;1.20;1.10;;;;;;;13.27;100.00;97901.75;5056296;28;20039;-91
2022/10/05 11:01:41;;;;;;;0.93;0.70;;;;;;;12.88;100.00;97923.50;5056378;28;20128;-91
2022/10/05 11:04:31;;;;;;;0.95;0.60;;;;;;;13.28;100.00;97941.03;5056411;28;20035;-90
2022/10/05 11:07:23;;;;;;;1.30;0.90;;;;;;;13.20;100.00;97954.59;5073924;28;20064;-90
2022/10/05 11:10:18;;;;;;;1.48;0.60;;;;;;;13.00;100.00;97953.22;5069806;28;20462;-89
2022/10/05 11:12:47;;;;;;;1.50;0.90;;;;;;;13.12;100.00;97953.16;5064644;28;20040;-89
2022/10/05 11:15:47;;;;;;;1.13;0.80;;;;;;;13.09;100.00;97932.56;5063003;28;20025;-89
2022/10/05 11:18:40;;;;;;;0.70;0.70;;;;;;;13.13;100.00;97940.78;5062204;28;20028;-88
2022/10/05 11:21:27;;;;;;;0.95;0.70;;;;;;;12.77;100.00;97942.78;5069286;28;20033;-90
2022/10/05 11:23:59;;;;;;;0.60;0.60;;;;;;;13.28;100.00;97937.59;5060288;28;20086;-90
2022/10/05 11:26:43;;;;;;;0.60;0.60;;;;;;;13.45;100.00;97929.72;5066164;28;20047;-89
2022/10/05 11:29:43;;;;;;;0.65;0.65;;;;;;;13.17;100.00;97922.66;5065511;28;20041;-89
2022/10/05 11:32:30;;;;;;;0.60;0.60;;;;;;;13.36;100.00;97942.47;5060090;28;20025;-90
2022/10/05 11:34:58;;;;;;;0.50;0.50;;;;;;;12.86;100.00;97950.06;5066495;28;20024;-89
2022/10/05 11:37:48;;;;;;;0.63;0.50;;;;;;;13.27;100.00;97943.91;5067938;28;20031;-89
2022/10/05 11:41:01;;;;;;;0.63;0.63;;;;;;;13.12;100.00;97944.44;5061880;28;20906;-89
2022/10/05 11:43:45;;;;;;;0.70;0.70;;;;;;;13.24;100.00;97939.91;5053395;28;20057;-89
2022/10/05 11:46:29;;;;;;;1.63;0.60;;;;;;;13.21;100.00;97947.50;5065617;28;20063;-89
2022/10/05 11:48:54;;;;;;;;;;;;;;;13.12;100.00;97957.63;5067341;28;20470;-89
2022/10/05 11:51:27;;;;;;;0.50;0.50;;;;;;;13.20;100.00;97959.88;5069100;28;19919;-89
2022/10/05 11:54:01;;;;;;;1.33;0.88;;;;;;;13.33;100.00;97971.13;5066966;28;20115;-89
2022/10/05 11:56:38;;;;;;;0.60;0.60;;;;;;;13.08;100.00;97967.03;5064872;28;20120;-89
2022/10/05 11:59:34;;;;;;;1.27;0.60;;;;;;;12.95;100.00;97986.56;5046957;28;20037;-89
2022/10/05 12:02:18;;;;;;;0.60;0.60;;;;;;;13.28;100.00;97988.47;5060178;28;20021;-88
2022/10/05 12:05:09;;;;;;;0.82;0.80;;;;;;;13.47;100.00;97990.13;5070116;28;20032;-89
2022/10/05 12:08:03;;;;;;;0.63;0.60;;;;;;;13.45;100.00;98000.06;5059443;28;20123;-88
2022/10/05 12:10:43;;;;;;;0.77;0.77;;;;;;;13.26;100.00;97995.81;5067575;28;21547;-88
2022/10/05 12:13:19;;;;;;;1.23;0.60;;;;;;;13.23;100.00;97992.84;5060167;28;20033;-89
2022/10/05 12:16:01;;;;;;;0.75;0.73;;;;;;;13.39;100.00;97996.56;5068144;28;20112;-88
2022/10/05 12:18:30;;;;;;;2.65;1.35;;;;;;;13.54;100.00;97988.91;5063204;28;20395;-90
2022/10/05 12:21:14;;;;;;;3.45;2.30;;;;;;;13.66;100.00;97993.31;5042716;28;20047;-88
2022/10/05 12:23:54;;;;;;;4.32;3.92;;;;;;;13.48;100.00;97989.88;5061979;28;20047;-89
2022/10/05 12:26:25;;;;;;;3.70;3.40;;;;;;;13.44;100.00;97991.38;5067244;28;20115;-89
2022/10/05 12:28:56;;;;;;;3.83;3.22;;;;;;;13.51;100.00;97986.75;5050483;28;20483;-88
2022/10/05 12:31:28;;;;;;;4.75;2.35;;;;;;;13.16;100.00;97992.97;5058096;28;20033;-89
2022/10/05 12:34:25;;;;;;;1.70;1.60;;;;;;;13.29;100.00;98000.59;5060522;28;20029;-89
2022/10/05 12:37:09;;;;;;;1.30;1.20;;;;;;;12.96;100.00;98007.38;5064456;28;20036;-89
2022/10/05 12:39:44;;;;;;;1.15;1.08;;;;;;;12.75;100.00;98011.50;5068579;28;20071;-89